Time;durP1;ratioP1;P1;durP2;ratioP2;P2;SDS_P1;SDS_P2;PMS_P1;PMS_P2;Temp;Humidity;BMP_temperature;BMP_pressure;BME280_temperature;BME280_humidity;BME280_pressure;Samples;Min_cycle;Max_cycle;Signal;HPM_P1;HPM_P2
2021/09/28 00:00:54;;;;;;;15.73;2.55;;;12.90;99.90;;;;;;4998542;28;38042;-78
2021/09/28 00:03:20;;;;;;;15.50;3.05;;;12.90;99.90;;;;;;4998341;28;39969;-78
2021/09/28 00:05:48;;;;;;;15.00;2.78;;;13.00;99.90;;;;;;4995805;28;39828;-79
2021/09/28 00:08:15;;;;;;;11.30;2.33;;;13.00;99.90;;;;;;4992503;28;38333;-78
2021/09/28 00:10:41;;;;;;;21.13;2.65;;;13.00;99.90;;;;;;4997565;28;37016;-79
2021/09/28 00:13:08;;;;;;;20.55;3.22;;;13.00;99.90;;;;;;4993550;28;39242;-78
2021/09/28 00:15:34;;;;;;;21.38;2.95;;;13.10;99.90;;;;;;4991496;28;39155;-79
2021/09/28 00:18:01;;;;;;;14.25;2.53;;;13.00;99.90;;;;;;4997739;28;38282;-78
2021/09/28 00:20:29;;;;;;;12.38;2.80;;;13.00;99.90;;;;;;4997958;28;47065;-78
2021/09/28 00:22:56;;;;;;;13.65;2.80;;;13.00;99.90;;;;;;4996161;28;39411;-78
2021/09/28 00:25:23;;;;;;;17.27;3.08;;;13.00;99.90;;;;;;4997354;28;38543;-78
2021/09/28 00:27:49;;;;;;;15.45;2.55;;;12.90;99.90;;;;;;4996814;28;39140;-78
2021/09/28 00:30:16;;;;;;;18.50;3.30;;;12.90;99.90;;;;;;4994840;28;36988;-78
2021/09/28 00:32:42;;;;;;;11.27;2.08;;;12.80;99.90;;;;;;5013889;28;39547;-79
2021/09/28 00:35:08;;;;;;;13.88;2.80;;;12.70;99.90;;;;;;4995806;28;38676;-79
2021/09/28 00:37:34;;;;;;;12.23;2.40;;;12.70;99.90;;;;;;4997545;28;39602;-78
2021/09/28 00:40:00;;;;;;;11.75;2.20;;;12.70;99.90;;;;;;4996963;28;37240;-78
2021/09/28 00:42:26;;;;;;;14.25;2.83;;;12.70;99.90;;;;;;4998887;28;38703;-79
2021/09/28 00:44:53;;;;;;;16.65;2.47;;;12.70;99.90;;;;;;4998002;28;38529;-79
2021/09/28 00:47:19;;;;;;;14.00;2.58;;;12.70;99.90;;;;;;4994088;28;36737;-79
2021/09/28 00:49:48;;;;;;;16.30;2.72;;;12.70;99.90;;;;;;4997441;28;36940;-79
2021/09/28 00:52:17;;;;;;;9.32;1.90;;;12.70;99.90;;;;;;4993338;28;40422;-78
2021/09/28 00:54:45;;;;;;;14.95;2.50;;;12.70;99.90;;;;;;5004134;28;42144;-78
2021/09/28 00:57:15;;;;;;;17.67;3.58;;;12.70;99.90;;;;;;4993737;28;37877;-78
2021/09/28 00:59:41;;;;;;;27.85;3.20;;;12.70;99.90;;;;;;4993890;28;37493;-78
2021/09/28 01:02:08;;;;;;;16.83;1.98;;;12.70;99.90;;;;;;4988286;28;38752;-78
2021/09/28 01:04:35;;;;;;;14.98;2.55;;;12.70;99.90;;;;;;4994410;28;38615;-78
2021/09/28 01:07:02;;;;;;;21.35;2.42;;;12.70;99.90;;;;;;4994851;28;37861;-78
2021/09/28 01:09:30;;;;;;;13.60;2.72;;;12.60;99.90;;;;;;4992430;28;48724;-78
2021/09/28 01:11:56;;;;;;;17.60;2.90;;;12.60;99.90;;;;;;4993068;28;39657;-79
2021/09/28 01:14:22;;;;;;;16.02;2.30;;;12.60;99.90;;;;;;4989996;28;39404;-78
2021/09/28 01:16:48;;;;;;;21.25;2.53;;;12.60;99.90;;;;;;4987421;28;36970;-78
2021/09/28 01:19:14;;;;;;;16.80;2.72;;;12.60;99.90;;;;;;4992679;28;37886;-79
2021/09/28 01:21:41;;;;;;;13.40;2.40;;;12.50;99.90;;;;;;4995475;28;38910;-78
2021/09/28 01:24:07;;;;;;;15.13;1.80;;;12.50;99.90;;;;;;4996425;28;38053;-79
2021/09/28 01:26:33;;;;;;;18.13;2.63;;;12.40;99.90;;;;;;5009357;28;38866;-78
2021/09/28 01:29:01;;;;;;;9.65;1.90;;;12.50;99.90;;;;;;4996858;28;35888;-78
2021/09/28 01:31:28;;;;;;;19.83;2.67;;;12.50;99.90;;;;;;4993422;28;39127;-78
2021/09/28 01:33:54;;;;;;;15.15;2.70;;;12.50;99.90;;;;;;4995119;28;38511;-78
2021/09/28 01:36:21;;;;;;;20.65;2.85;;;12.50;99.90;;;;;;4993271;28;38777;-80
2021/09/28 01:38:47;;;;;;;19.67;3.35;;;12.50;99.90;;;;;;4991835;28;36878;-78
2021/09/28 01:41:14;;;;;;;23.27;3.13;;;12.50;99.90;;;;;;4991640;28;39690;-78
2021/09/28 01:43:40;;;;;;;16.90;2.40;;;12.40;99.90;;;;;;4999007;28;36624;-78
2021/09/28 01:46:07;;;;;;;21.35;2.50;;;12.40;99.90;;;;;;4987296;28;38030;-78
2021/09/28 01:48:48;;;;;;;13.85;2.22;;;12.40;99.90;;;;;;4994056;28;38709;-78
2021/09/28 01:51:15;;;;;;;16.27;3.10;;;12.40;99.90;;;;;;4993760;28;39234;-78
2021/09/28 01:53:41;;;;;;;15.57;2.72;;;12.40;99.90;;;;;;4997622;28;42050;-78
2021/09/28 01:56:07;;;;;;;18.90;3.33;;;12.40;99.90;;;;;;4995916;28;38375;-78
2021/09/28 01:58:35;;;;;;;12.27;2.67;;;12.30;99.90;;;;;;4991839;28;35999;-77
2021/09/28 02:01:02;;;;;;;17.17;2.65;;;12.30;99.90;;;;;;4992892;28;36012;-75
2021/09/28 02:03:28;;;;;;;18.50;3.30;;;12.30;99.90;;;;;;5011696;28;47272;-78
2021/09/28 02:05:54;;;;;;;16.33;3.28;;;12.30;99.90;;;;;;5011823;28;38785;-78
2021/09/28 02:08:20;;;;;;;20.33;3.20;;;12.30;99.90;;;;;;4993167;28;38119;-78
2021/09/28 02:10:46;;;;;;;18.30;3.53;;;12.30;99.90;;;;;;4993134;28;39889;-78
2021/09/28 02:13:13;;;;;;;13.88;2.85;;;12.40;99.90;;;;;;4998270;28;39337;-78
2021/09/28 02:15:39;;;;;;;18.17;2.78;;;12.30;99.90;;;;;;4996386;28;38200;-78
2021/09/28 02:18:06;;;;;;;15.45;3.28;;;12.30;99.90;;;;;;4995611;28;35699;-77
2021/09/28 02:20:32;;;;;;;12.90;2.78;;;12.30;99.90;;;;;;4995879;28;38460;-78
2021/09/28 02:22:58;;;;;;;20.13;2.65;;;12.30;99.90;;;;;;4998463;28;39041;-78
2021/09/28 02:25:24;;;;;;;20.25;3.20;;;12.30;99.90;;;;;;4995650;28;37381;-78
2021/09/28 02:27:50;;;;;;;18.80;3.20;;;12.30;99.90;;;;;;4999288;28;39192;-78
2021/09/28 02:30:16;;;;;;;20.33;2.90;;;12.30;99.90;;;;;;4996306;28;38771;-78
2021/09/28 02:32:43;;;;;;;20.25;3.22;;;12.30;99.90;;;;;;4998405;28;38506;-77
2021/09/28 02:35:09;;;;;;;17.30;2.83;;;12.30;99.90;;;;;;4996932;28;38028;-79
2021/09/28 02:37:35;;;;;;;15.50;2.53;;;12.30;99.90;;;;;;4996778;28;38643;-80
2021/09/28 02:40:04;;;;;;;20.70;3.45;;;12.30;99.90;;;;;;4996445;28;39226;-78
2021/09/28 02:42:30;;;;;;;14.30;2.80;;;12.30;99.90;;;;;;4988190;28;47351;-80
2021/09/28 02:44:56;;;;;;;16.23;2.97;;;12.20;99.90;;;;;;4995057;28;38001;-80
2021/09/28 02:47:24;;;;;;;13.35;2.53;;;12.20;99.90;;;;;;4999616;28;38589;-80
2021/09/28 02:49:50;;;;;;;16.77;2.55;;;12.20;99.90;;;;;;4999475;28;37279;-78
2021/09/28 02:52:16;;;;;;;17.58;2.80;;;12.20;99.90;;;;;;5002264;28;38641;-78
2021/09/28 02:54:42;;;;;;;15.00;2.88;;;12.20;99.90;;;;;;4997537;28;39978;-78
2021/09/28 02:57:08;;;;;;;15.55;2.92;;;12.20;99.90;;;;;;4991823;28;37332;-78
2021/09/28 02:59:35;;;;;;;17.65;4.30;;;12.20;99.90;;;;;;4998388;28;38672;-78
2021/09/28 03:02:02;;;;;;;20.58;3.72;;;12.20;99.90;;;;;;4993257;28;37492;-76
2021/09/28 03:04:28;;;;;;;16.52;3.45;;;12.10;99.90;;;;;;4995771;28;37416;-78
2021/09/28 03:06:54;;;;;;;16.75;2.85;;;12.10;99.90;;;;;;4990751;28;38303;-78
2021/09/28 03:09:21;;;;;;;15.40;2.85;;;12.10;99.90;;;;;;5006631;28;39368;-78
2021/09/28 03:11:47;;;;;;;15.30;2.78;;;12.20;99.90;;;;;;5002258;28;38537;-78
2021/09/28 03:14:13;;;;;;;16.48;2.35;;;12.20;99.90;;;;;;5004704;28;39334;-78
2021/09/28 03:16:39;;;;;;;21.25;2.58;;;12.20;99.90;;;;;;5003524;28;37404;-78
2021/09/28 03:19:06;;;;;;;22.67;3.47;;;12.20;99.90;;;;;;5006669;28;39026;-78
2021/09/28 03:21:32;;;;;;;21.15;2.75;;;12.20;99.90;;;;;;5002816;28;38915;-78
2021/09/28 03:23:58;;;;;;;13.43;2.47;;;12.20;99.90;;;;;;5003563;28;38447;-77
2021/09/28 03:26:25;;;;;;;16.10;3.05;;;12.20;99.90;;;;;;4999602;28;35851;-78
2021/09/28 03:28:52;;;;;;;19.52;3.08;;;12.20;99.90;;;;;;5006360;28;39005;-78
2021/09/28 03:31:18;;;;;;;12.40;2.63;;;12.20;99.90;;;;;;5006216;28;39110;-78
2021/09/28 03:33:44;;;;;;;12.63;2.33;;;12.20;99.90;;;;;;5000041;28;38526;-77
2021/09/28 03:36:11;;;;;;;19.30;2.65;;;12.20;99.90;;;;;;4999924;28;39728;-78
2021/09/28 03:38:37;;;;;;;17.13;2.63;;;12.10;99.90;;;;;;4999114;28;39145;-78
2021/09/28 03:41:04;;;;;;;15.10;2.55;;;12.10;99.90;;;;;;5003904;28;39755;-77
2021/09/28 03:43:30;;;;;;;15.95;2.70;;;12.20;99.90;;;;;;4999627;28;38985;-78
2021/09/28 03:45:56;;;;;;;12.27;2.42;;;12.20;99.90;;;;;;4998000;28;38440;-78
2021/09/28 03:48:23;;;;;;;13.82;2.70;;;12.10;99.90;;;;;;4997260;28;38461;-80
2021/09/28 03:50:49;;;;;;;16.10;2.50;;;12.20;99.90;;;;;;4997469;28;38592;-79
2021/09/28 03:53:15;;;;;;;17.88;3.60;;;12.20;99.90;;;;;;4998613;28;36935;-79
2021/09/28 03:55:42;;;;;;;19.05;3.42;;;12.20;99.90;;;;;;5008473;28;36430;-77
2021/09/28 03:58:08;;;;;;;14.00;2.35;;;12.20;99.90;;;;;;4996096;28;38284;-79
2021/09/28 04:00:37;;;;;;;11.75;3.00;;;12.20;99.90;;;;;;4993924;28;38500;-80
2021/09/28 04:03:07;;;;;;;15.70;3.13;;;12.20;99.90;;;;;;5001436;28;38180;-79
2021/09/28 04:05:34;;;;;;;15.45;3.22;;;12.20;99.90;;;;;;4998451;28;37597;-78
2021/09/28 04:08:01;;;;;;;20.63;2.88;;;12.20;99.90;;;;;;4996354;28;40962;-79
2021/09/28 04:10:27;;;;;;;15.50;3.53;;;12.20;99.90;;;;;;4997900;28;46932;-79
2021/09/28 04:12:54;;;;;;;20.00;3.22;;;12.20;99.90;;;;;;4998639;28;39067;-77
2021/09/28 04:15:24;;;;;;;9.48;2.83;;;12.20;99.90;;;;;;4990620;28;37228;-78
2021/09/28 04:17:51;;;;;;;14.60;3.47;;;12.20;99.90;;;;;;4994509;28;40013;-78
2021/09/28 04:20:18;;;;;;;15.18;2.80;;;12.30;99.90;;;;;;4995765;28;36773;-77
2021/09/28 04:22:44;;;;;;;14.52;3.72;;;12.30;99.90;;;;;;4998042;28;38127;-78
2021/09/28 04:25:11;;;;;;;15.75;2.90;;;12.40;99.90;;;;;;4997405;28;38348;-78
2021/09/28 04:27:37;;;;;;;15.60;3.70;;;12.40;99.90;;;;;;4995874;28;40308;-78
2021/09/28 04:30:05;;;;;;;14.57;3.25;;;12.40;99.90;;;;;;4999029;28;39072;-77
2021/09/28 04:32:31;;;;;;;17.70;3.45;;;12.40;99.90;;;;;;4998203;28;39670;-78
2021/09/28 04:34:57;;;;;;;13.88;3.20;;;12.40;99.90;;;;;;4998765;28;37319;-78
2021/09/28 04:37:24;;;;;;;12.55;2.63;;;12.40;99.90;;;;;;4993509;28;40680;-78
2021/09/28 04:39:50;;;;;;;19.23;4.30;;;12.30;99.90;;;;;;4994469;28;36871;-78
2021/09/28 04:42:17;;;;;;;15.77;3.17;;;12.30;99.90;;;;;;4995771;28;37898;-77
2021/09/28 04:44:43;;;;;;;17.77;2.90;;;12.20;99.90;;;;;;4998939;28;38033;-78
2021/09/28 04:47:09;;;;;;;21.35;4.07;;;12.20;99.90;;;;;;4996649;28;39048;-78
2021/09/28 04:49:35;;;;;;;13.65;3.35;;;12.20;99.90;;;;;;5010447;28;38482;-79
2021/09/28 04:52:02;;;;;;;14.27;2.92;;;12.20;99.90;;;;;;4995715;28;37787;-77
2021/09/28 04:54:28;;;;;;;18.98;3.40;;;12.10;99.90;;;;;;5001532;28;38712;-78
2021/09/28 04:56:54;;;;;;;13.38;3.92;;;12.10;99.90;;;;;;4985798;28;39538;-78
2021/09/28 04:59:20;;;;;;;12.75;3.58;;;12.10;99.90;;;;;;4994359;28;38245;-78
2021/09/28 05:01:46;;;;;;;16.55;3.05;;;12.10;99.90;;;;;;4994889;28;38637;-78
2021/09/28 05:04:12;;;;;;;14.75;3.13;;;12.10;99.90;;;;;;4999592;28;36033;-78
2021/09/28 05:06:38;;;;;;;18.98;4.07;;;12.10;99.90;;;;;;5010881;28;39728;-78
2021/09/28 05:09:04;;;;;;;16.10;3.70;;;12.00;99.90;;;;;;4998415;28;38300;-78
2021/09/28 05:11:31;;;;;;;12.32;3.28;;;12.00;99.90;;;;;;4995036;28;37467;-78
2021/09/28 05:13:57;;;;;;;17.23;3.28;;;12.00;99.90;;;;;;4998010;28;37404;-78
2021/09/28 05:16:23;;;;;;;14.07;3.33;;;12.00;99.90;;;;;;4993913;28;38713;-78
2021/09/28 05:18:49;;;;;;;19.50;3.88;;;12.00;99.90;;;;;;4994506;28;37243;-78
2021/09/28 05:21:16;;;;;;;12.27;3.20;;;12.00;99.90;;;;;;4996277;28;38180;-79
2021/09/28 05:23:45;;;;;;;21.55;5.20;;;12.00;99.90;;;;;;4996316;28;37474;-78
2021/09/28 05:26:15;;;;;;;18.35;4.30;;;12.00;99.90;;;;;;4994146;28;38573;-78
2021/09/28 05:28:42;;;;;;;17.60;4.22;;;11.90;99.90;;;;;;5001306;28;37228;-78
2021/09/28 05:31:08;;;;;;;19.08;4.53;;;11.80;99.90;;;;;;5000736;28;37906;-78
2021/09/28 05:33:35;;;;;;;16.00;3.83;;;11.90;99.90;;;;;;5004070;28;38618;-77
2021/09/28 05:36:01;;;;;;;12.05;3.22;;;11.80;99.90;;;;;;5009306;28;38661;-78
2021/09/28 05:38:27;;;;;;;15.65;3.45;;;11.90;99.90;;;;;;5005215;28;48806;-78
2021/09/28 05:40:53;;;;;;;11.82;3.67;;;11.90;99.90;;;;;;5005221;28;38126;-78
2021/09/28 05:43:19;;;;;;;13.60;3.58;;;11.90;99.90;;;;;;4995088;28;37597;-78
2021/09/28 05:45:46;;;;;;;18.90;3.88;;;11.80;99.90;;;;;;5004490;28;38841;-78
2021/09/28 05:48:12;;;;;;;14.60;3.55;;;11.90;99.90;;;;;;5003990;28;38503;-77
2021/09/28 05:50:38;;;;;;;18.42;3.95;;;11.90;99.90;;;;;;5002058;28;37799;-78
2021/09/28 05:53:08;;;;;;;19.98;3.67;;;11.90;99.90;;;;;;5011550;28;38111;-77
2021/09/28 05:55:35;;;;;;;17.95;4.32;;;11.90;99.90;;;;;;4998726;28;38535;-78
2021/09/28 05:58:02;;;;;;;22.75;4.00;;;11.90;99.90;;;;;;4998194;28;39560;-77
2021/09/28 06:00:28;;;;;;;19.08;3.80;;;11.90;99.90;;;;;;5000307;28;38582;-78
2021/09/28 06:02:54;;;;;;;16.63;4.05;;;11.90;99.90;;;;;;5012893;28;36483;-77
2021/09/28 06:05:21;;;;;;;23.60;4.00;;;12.00;99.90;;;;;;4994855;28;38243;-78
2021/09/28 06:07:48;;;;;;;18.75;4.20;;;12.00;99.90;;;;;;4994614;28;39145;-78
2021/09/28 06:10:14;;;;;;;19.15;3.33;;;12.00;99.90;;;;;;4998043;28;38937;-78
2021/09/28 06:12:40;;;;;;;16.77;4.68;;;12.00;99.90;;;;;;4996077;28;38069;-77
2021/09/28 06:15:07;;;;;;;14.25;3.65;;;12.00;99.90;;;;;;4997477;28;39700;-80
2021/09/28 06:17:33;;;;;;;14.05;3.50;;;12.00;99.90;;;;;;5001572;28;38386;-79
2021/09/28 06:19:59;;;;;;;12.38;3.78;;;12.00;99.90;;;;;;5004651;28;38520;-77
2021/09/28 06:22:25;;;;;;;18.30;4.53;;;12.00;99.90;;;;;;4996152;28;37195;-78
2021/09/28 06:24:56;;;;;;;16.45;3.75;;;12.00;99.90;;;;;;4993844;28;38683;-78
2021/09/28 06:27:24;;;;;;;16.42;3.72;;;12.10;99.90;;;;;;5001544;28;38254;-78
2021/09/28 06:29:51;;;;;;;18.42;4.45;;;12.00;99.90;;;;;;4999003;28;38497;-77
2021/09/28 06:32:19;;;;;;;21.75;4.43;;;12.00;99.90;;;;;;5001771;28;37505;-78
2021/09/28 06:34:45;;;;;;;21.10;4.20;;;12.10;99.90;;;;;;4994571;28;39646;-78
2021/09/28 06:37:12;;;;;;;16.63;4.43;;;12.10;99.90;;;;;;4996093;28;38341;-78
2021/09/28 06:39:38;;;;;;;18.85;4.30;;;12.10;99.90;;;;;;4998895;28;38207;-78
2021/09/28 06:42:05;;;;;;;15.57;4.18;;;12.20;99.90;;;;;;5012545;28;37057;-78
2021/09/28 06:44:31;;;;;;;16.13;4.35;;;12.20;99.90;;;;;;5000257;28;38964;-78
2021/09/28 06:46:57;;;;;;;19.88;4.40;;;12.30;99.90;;;;;;4997244;28;38370;-79
2021/09/28 06:49:23;;;;;;;10.70;3.85;;;12.30;99.90;;;;;;5001001;28;39540;-79
2021/09/28 06:51:49;;;;;;;12.23;3.97;;;12.30;99.90;;;;;;4998053;28;37312;-78
2021/09/28 06:54:16;;;;;;;13.88;4.00;;;12.40;99.90;;;;;;5001303;28;40396;-78
2021/09/28 06:56:42;;;;;;;15.52;3.80;;;12.40;99.90;;;;;;4999611;28;39460;-78
2021/09/28 06:59:10;;;;;;;9.35;3.92;;;12.40;99.90;;;;;;5019708;28;36969;-78
2021/09/28 07:01:37;;;;;;;13.02;4.43;;;12.40;99.90;;;;;;5005537;28;37940;-78
2021/09/28 07:04:04;;;;;;;16.88;4.10;;;12.50;99.90;;;;;;5000275;28;39084;-78
2021/09/28 07:06:30;;;;;;;10.80;3.25;;;12.50;99.90;;;;;;5003740;28;37718;-78
2021/09/28 07:08:56;;;;;;;17.25;3.80;;;12.60;99.90;;;;;;5001794;28;36929;-78
2021/09/28 07:11:23;;;;;;;15.48;3.83;;;12.70;99.90;;;;;;5000128;28;39122;-78
2021/09/28 07:13:50;;;;;;;13.77;3.38;;;12.80;99.90;;;;;;5023163;28;40277;-77
2021/09/28 07:16:16;;;;;;;13.65;4.07;;;12.80;99.90;;;;;;4999668;28;38260;-78
2021/09/28 07:18:42;;;;;;;17.65;4.03;;;12.90;99.90;;;;;;5000054;28;38269;-78
2021/09/28 07:21:09;;;;;;;13.07;3.92;;;13.00;99.90;;;;;;5004231;28;39508;-78
2021/09/28 07:23:35;;;;;;;9.75;3.35;;;13.10;99.90;;;;;;5001844;28;38959;-78
2021/09/28 07:26:02;;;;;;;12.15;3.40;;;13.10;99.90;;;;;;5000817;28;39112;-78
2021/09/28 07:28:28;;;;;;;12.60;2.63;;;13.20;99.90;;;;;;5016339;28;38139;-80
2021/09/28 07:30:54;;;;;;;11.55;3.53;;;13.30;99.90;;;;;;5002726;28;36957;-79
2021/09/28 07:33:20;;;;;;;14.93;3.90;;;13.30;99.90;;;;;;5000426;28;40027;-80
2021/09/28 07:35:47;;;;;;;17.35;3.72;;;13.40;99.90;;;;;;5005673;28;39158;-80
2021/09/28 07:38:15;;;;;;;16.63;4.13;;;13.40;99.90;;;;;;4998093;28;41756;-80
2021/09/28 07:40:44;;;;;;;19.90;3.85;;;13.50;99.90;;;;;;5001195;28;37374;-80
2021/09/28 07:43:11;;;;;;;11.43;2.92;;;13.50;99.90;;;;;;5000440;28;39408;-80
2021/09/28 07:45:38;;;;;;;15.05;3.90;;;13.60;99.90;;;;;;5002998;28;39255;-79
2021/09/28 07:48:05;;;;;;;17.58;3.25;;;13.60;99.90;;;;;;5002191;28;38559;-80
2021/09/28 07:50:31;;;;;;;11.85;3.13;;;13.70;99.90;;;;;;5008254;28;37212;-80
2021/09/28 07:52:58;;;;;;;11.88;3.03;;;13.80;99.90;;;;;;5006265;28;39642;-80
2021/09/28 07:55:26;;;;;;;13.95;3.03;;;13.80;99.90;;;;;;4988616;28;39417;-80
2021/09/28 07:57:53;;;;;;;13.30;3.88;;;13.80;99.90;;;;;;5005966;28;38207;-80
2021/09/28 08:00:19;;;;;;;12.85;3.05;;;13.90;99.90;;;;;;5004677;28;37345;-80
2021/09/28 08:02:45;;;;;;;9.00;3.08;;;13.90;99.90;;;;;;5003667;28;40905;-79
2021/09/28 08:05:12;;;;;;;11.13;2.70;;;14.00;99.90;;;;;;5002210;28;39944;-80
2021/09/28 08:07:39;;;;;;;15.40;3.90;;;14.00;99.90;;;;;;5003617;28;37818;-80
2021/09/28 08:10:07;;;;;;;13.18;3.00;;;14.10;99.90;;;;;;5005995;28;37916;-79
2021/09/28 08:12:33;;;;;;;15.98;3.97;;;14.10;99.90;;;;;;5005809;28;40041;-79
2021/09/28 08:14:59;;;;;;;21.23;4.03;;;14.10;99.90;;;;;;5002322;28;37965;-79
2021/09/28 08:17:26;;;;;;;13.27;2.72;;;14.10;99.90;;;;;;5003109;28;37548;-79
2021/09/28 08:19:52;;;;;;;12.35;3.20;;;14.10;99.90;;;;;;5008546;28;36870;-79
2021/09/28 08:22:19;;;;;;;13.77;3.15;;;14.20;99.90;;;;;;5021553;28;38087;-79
2021/09/28 08:24:47;;;;;;;15.48;3.58;;;14.40;99.90;;;;;;5006996;28;39876;-80
2021/09/28 08:30:00;;;;;;;12.40;2.83;;;14.50;99.90;;;;;;5010397;28;37570;-82
2021/09/28 08:32:27;;;;;;;10.38;3.05;;;14.60;99.90;;;;;;5006119;28;40012;-82
2021/09/28 08:34:53;;;;;;;11.32;3.28;;;14.70;99.90;;;;;;4999365;28;37958;-81
2021/09/28 08:37:19;;;;;;;17.08;4.10;;;14.70;99.90;;;;;;5005036;28;38792;-81
2021/09/28 08:39:46;;;;;;;20.92;3.42;;;14.80;99.90;;;;;;5008309;28;38867;-81
2021/09/28 08:42:13;;;;;;;12.85;2.60;;;14.70;99.90;;;;;;4998993;28;37721;-81
2021/09/28 08:44:40;;;;;;;12.13;3.28;;;14.70;99.90;;;;;;5020087;28;38805;-81
2021/09/28 08:47:06;;;;;;;17.75;3.47;;;14.70;99.90;;;;;;5009859;28;38016;-81
2021/09/28 08:49:33;;;;;;;10.98;2.95;;;14.60;99.90;;;;;;5018201;28;36700;-82
2021/09/28 08:52:02;;;;;;;12.90;3.45;;;14.70;99.90;;;;;;5010057;28;38462;-81
2021/09/28 08:54:28;;;;;;;8.90;2.92;;;14.80;99.90;;;;;;5011529;28;47270;-82
2021/09/28 08:56:55;;;;;;;19.17;3.70;;;14.90;99.90;;;;;;4996820;28;39538;-81
2021/09/28 08:59:22;;;;;;;15.90;3.50;;;15.00;99.90;;;;;;5015689;28;39754;-81
2021/09/28 09:02:02;;;;;;;15.13;3.35;;;15.10;99.90;;;;;;5001633;28;39799;-81
2021/09/28 09:04:28;;;;;;;12.30;2.75;;;15.20;99.90;;;;;;5027103;28;47208;-81
2021/09/28 09:06:57;;;;;;;16.23;4.00;;;15.10;99.90;;;;;;5017350;28;37098;-81
2021/09/28 09:09:23;;;;;;;14.75;3.28;;;15.10;99.90;;;;;;5000911;28;36983;-81
2021/09/28 09:11:51;;;;;;;16.23;3.78;;;15.20;99.90;;;;;;4997913;28;39419;-80
2021/09/28 09:14:19;;;;;;;15.50;3.80;;;15.40;99.90;;;;;;5001926;28;39035;-80
2021/09/28 09:16:47;;;;;;;10.82;3.65;;;15.50;99.90;;;;;;4999657;28;38003;-79
2021/09/28 09:19:24;;;;;;;13.70;3.35;;;15.50;99.90;;;;;;4995084;28;37832;-79
2021/09/28 09:21:51;;;;;;;14.63;4.53;;;15.60;99.90;;;;;;5008372;28;38567;-79
2021/09/28 09:24:49;;;;;;;18.73;4.05;;;15.70;99.90;;;;;;5003243;28;38832;-80
2021/09/28 09:27:29;;;;;;;14.55;3.55;;;15.80;99.90;;;;;;5009946;28;38036;-79
2021/09/28 09:30:07;;;;;;;15.15;3.92;;;15.90;99.90;;;;;;4994014;28;38147;-79
2021/09/28 09:32:47;;;;;;;16.05;4.60;;;16.00;99.90;;;;;;4997523;28;45468;-80
2021/09/28 09:35:22;;;;;;;14.50;3.95;;;16.20;99.90;;;;;;4997682;28;40319;-80
2021/09/28 09:37:48;;;;;;;15.40;3.60;;;16.10;99.90;;;;;;5005434;28;38759;-80
2021/09/28 09:40:49;;;;;;;17.70;4.30;;;16.30;99.90;;;;;;5005024;28;36857;-80
2021/09/28 09:43:22;;;;;;;11.63;3.88;;;16.40;99.90;;;;;;4995589;28;39513;-80
2021/09/28 09:45:48;;;;;;;20.83;5.18;;;16.60;99.90;;;;;;4995947;28;39784;-80
2021/09/28 09:48:23;;;;;;;14.70;4.63;;;16.60;99.90;;;;;;5000852;28;38256;-80
2021/09/28 09:50:57;;;;;;;14.23;4.22;;;16.70;99.90;;;;;;4994506;28;39038;-81
2021/09/28 09:53:23;;;;;;;14.23;4.10;;;16.80;99.90;;;;;;5004121;28;38680;-81
2021/09/28 09:55:50;;;;;;;17.38;4.82;;;17.00;99.90;;;;;;5015681;28;38642;-81
2021/09/28 09:58:16;;;;;;;14.65;4.43;;;17.10;99.90;;;;;;5003797;28;37381;-80
2021/09/28 10:00:42;;;;;;;16.17;3.78;;;17.00;99.90;;;;;;5004959;28;36857;-80
2021/09/28 10:03:10;;;;;;;11.10;3.70;;;16.80;99.90;;;;;;5003967;28;38651;-81
2021/09/28 10:05:36;;;;;;;10.75;3.42;;;17.00;99.90;;;;;;5002344;28;39336;-80
2021/09/28 10:08:08;;;;;;;13.13;4.10;;;17.20;99.90;;;;;;5001317;28;38037;-80
2021/09/28 10:10:35;;;;;;;14.10;3.80;;;17.30;99.90;;;;;;5005603;28;37262;-81
2021/09/28 10:13:03;;;;;;;17.30;2.95;;;17.20;99.90;;;;;;5013093;28;40316;-80
2021/09/28 10:15:30;;;;;;;15.10;3.35;;;17.30;99.90;;;;;;5004346;28;37728;-80
2021/09/28 10:17:56;;;;;;;18.20;3.80;;;17.40;99.90;;;;;;4998428;28;38986;-81
2021/09/28 10:20:22;;;;;;;17.10;3.38;;;17.30;99.90;;;;;;4991509;28;37553;-81
2021/09/28 10:22:57;;;;;;;15.50;3.58;;;17.10;99.90;;;;;;4993732;28;38981;-81
2021/09/28 10:25:30;;;;;;;11.68;2.65;;;17.50;99.90;;;;;;5003484;28;39282;-80
2021/09/28 10:28:06;;;;;;;18.05;3.17;;;17.70;99.90;;;;;;5020559;28;39538;-82
2021/09/28 10:30:35;;;;;;;12.65;3.17;;;17.80;99.90;;;;;;5022172;28;47608;-80
2021/09/28 10:33:23;;;;;;;11.50;2.70;;;17.80;99.90;;;;;;4994437;28;38819;-81
2021/09/28 10:35:55;;;;;;;15.80;3.00;;;18.00;99.90;;;;;;5015545;28;48273;-80
2021/09/28 10:38:40;;;;;;;;;;;18.30;99.90;;;;;;5008885;28;38540;-80
2021/09/28 10:41:06;;;;;;;19.40;2.65;;;17.90;99.90;;;;;;5010311;28;37761;-80
2021/09/28 10:43:32;;;;;;;8.95;2.50;;;17.90;99.90;;;;;;5008244;28;40089;-80
2021/09/28 10:46:00;;;;;;;23.60;2.67;;;17.70;99.90;;;;;;5004271;28;38402;-81
2021/09/28 10:48:26;;;;;;;13.40;2.97;;;17.90;99.90;;;;;;5006357;28;40336;-81
2021/09/28 10:51:10;;;;;;;13.88;2.72;;;18.00;99.90;;;;;;5007316;28;37141;-80
2021/09/28 10:53:38;;;;;;;12.13;2.80;;;18.30;99.90;;;;;;5001070;28;46910;-80
2021/09/28 10:56:11;;;;;;;18.20;2.60;;;18.50;99.90;;;;;;5005109;28;39427;-80
2021/09/28 10:58:52;;;;;;;9.90;2.45;;;18.00;99.90;;;;;;5004933;28;39436;-80
2021/09/28 11:01:19;;;;;;;9.27;2.13;;;17.90;99.90;;;;;;5006154;28;39194;-80
2021/09/28 11:03:55;;;;;;;8.48;2.85;;;18.10;99.90;;;;;;4998538;28;40725;-80
2021/09/28 11:06:43;;;;;;;15.52;3.00;;;18.30;99.90;;;;;;4996498;28;39479;-80
2021/09/28 11:09:13;;;;;;;10.95;2.25;;;18.20;99.90;;;;;;5003732;28;38815;-81
2021/09/28 11:11:40;;;;;;;10.77;2.15;;;18.20;99.90;;;;;;5003452;28;37405;-80
2021/09/28 11:14:09;;;;;;;10.43;2.67;;;18.10;99.90;;;;;;5002236;28;40532;-80
2021/09/28 11:16:50;;;;;;;9.23;1.70;;;18.10;99.90;;;;;;5003034;28;40903;-80
2021/09/28 11:19:17;;;;;;;7.10;1.65;;;18.30;99.90;;;;;;5003417;28;38950;-81
2021/09/28 11:21:44;;;;;;;9.73;1.77;;;18.70;99.90;;;;;;5009328;28;37021;-81
2021/09/28 11:24:12;;;;;;;10.75;2.13;;;18.80;99.90;;;;;;5004206;28;39341;-81
2021/09/28 11:26:42;;;;;;;8.55;1.50;;;18.70;99.90;;;;;;5004764;28;37619;-81
2021/09/28 11:29:13;;;;;;;6.30;1.48;;;18.90;99.90;;;;;;5006608;28;37979;-81
2021/09/28 11:31:44;;;;;;;9.32;2.15;;;19.20;99.90;;;;;;5001764;28;38827;-81
2021/09/28 11:34:11;;;;;;;6.35;1.25;;;19.40;99.90;;;;;;5009966;28;40201;-80
2021/09/28 11:36:39;;;;;;;8.52;1.70;;;19.00;99.90;;;;;;5004114;28;39053;-80
2021/09/28 11:39:13;;;;;;;9.00;1.35;;;19.00;99.90;;;;;;5007894;28;39064;-80
2021/09/28 11:41:42;;;;;;;8.60;1.70;;;19.20;99.90;;;;;;5000905;28;49081;-80
2021/09/28 11:44:08;;;;;;;9.75;2.08;;;19.20;99.90;;;;;;5007562;28;39807;-80
2021/09/28 11:46:35;;;;;;;11.77;1.60;;;18.70;99.90;;;;;;5005222;28;38290;-81
2021/09/28 11:49:07;;;;;;;8.20;1.70;;;18.70;99.90;;;;;;5001136;28;37873;-80
2021/09/28 11:51:36;;;;;;;8.60;1.90;;;18.90;99.90;;;;;;5003633;28;48641;-79
2021/09/28 11:54:08;;;;;;;7.05;1.30;;;19.10;99.90;;;;;;5001377;28;36990;-80
2021/09/28 11:56:38;;;;;;;8.38;1.45;;;19.20;99.90;;;;;;5002092;28;38097;-80
2021/09/28 11:59:08;;;;;;;8.32;2.00;;;19.40;99.90;;;;;;5003956;28;38784;-80
2021/09/28 12:01:35;;;;;;;9.77;1.67;;;19.10;99.90;;;;;;5007314;28;37049;-80
2021/09/28 12:04:06;;;;;;;7.18;1.50;;;19.10;99.90;;;;;;5003583;28;38984;-80
2021/09/28 12:06:47;;;;;;;5.90;1.33;;;19.10;99.90;;;;;;4997414;28;39987;-80
2021/09/28 12:09:14;;;;;;;10.05;1.70;;;19.30;99.90;;;;;;5005446;28;38130;-80
2021/09/28 12:12:19;;;;;;;6.78;1.90;;;19.10;99.90;;;;;;5004363;28;37327;-80
2021/09/28 12:14:51;;;;;;;7.43;1.80;;;18.80;99.90;;;;;;4999231;28;46751;-80
2021/09/28 12:17:32;;;;;;;10.63;1.70;;;18.50;99.90;;;;;;5007840;28;38789;-80
2021/09/28 12:20:03;;;;;;;10.15;2.05;;;18.60;99.90;;;;;;5006405;28;38836;-81
2021/09/28 12:22:51;;;;;;;6.85;1.40;;;18.90;99.90;;;;;;5004359;28;35255;-79
2021/09/28 12:25:31;;;;;;;9.90;1.30;;;18.90;99.90;;;;;;5003178;28;37372;-81
2021/09/28 12:27:57;;;;;;;6.82;1.65;;;18.90;99.90;;;;;;5000654;28;39057;-80
2021/09/28 12:30:27;;;;;;;10.82;1.67;;;18.70;99.90;;;;;;4998420;28;37122;-81
2021/09/28 12:32:53;;;;;;;9.40;1.77;;;18.60;99.90;;;;;;5007386;28;38337;-81
2021/09/28 12:35:29;;;;;;;8.77;1.80;;;18.70;99.90;;;;;;4993792;28;39285;-80
2021/09/28 12:37:58;;;;;;;9.32;1.33;;;18.90;99.90;;;;;;5001646;28;38411;-81
2021/09/28 12:40:26;;;;;;;8.23;1.50;;;18.90;99.90;;;;;;4998093;28;37063;-79
2021/09/28 12:43:07;;;;;;;10.60;1.30;;;18.80;99.90;;;;;;5000808;28;38628;-80
2021/09/28 12:45:49;;;;;;;6.05;1.83;;;18.80;99.90;;;;;;4994870;28;48669;-80